Morforte De Lemos, Spain
Current Conditions -  °F | °C
As of 5:30 AM on Sunday 23 Nov 2014 (Local Time) from LEST Reporting Station
Light Rain Light Rain  
Wind Chill: 50°   Ceiling: 500
Heat Index: 50°   Visibility: 3mi
Dew Point: 48°   Wind: 17mph
Humidity: 94%   Direction: 360°N
Pressure: 29.88"   Gusts: 29mph
Location:  42.52°N, 7.5°W
Report Text: LEST 230430Z 36015G25KT 330V030 5000 -RA BKN005 OVC010 10/09 Q1012 NOSIG
Loading
Personal Weather Stations






























Interactive Weather Map New forecast layout! Learn more

10-Day Weather Forecast

Advertisements
Track Severe Weather on mobile